sensor_id;sensor_type;location;lat;lon;timestamp;P1;durP1;ratioP1;P2;durP2;ratioP2
21657;SDS011;10990;48.174;9.782;2022-09-09T00:01:58;2.85;;;0.98;;
21657;SDS011;10990;48.174;9.782;2022-09-09T00:04:30;2.00;;;0.70;;
21657;SDS011;10990;48.174;9.782;2022-09-09T00:07:01;0.85;;;0.75;;
21657;SDS011;10990;48.174;9.782;2022-09-09T00:09:35;2.70;;;0.73;;
21657;SDS011;10990;48.174;9.782;2022-09-09T00:12:10;1.08;;;0.80;;
21657;SDS011;10990;48.174;9.782;2022-09-09T00:14:42;2.28;;;0.90;;
21657;SDS011;10990;48.174;9.782;2022-09-09T00:17:17;2.50;;;0.93;;
21657;SDS011;10990;48.174;9.782;2022-09-09T00:19:53;1.77;;;0.95;;
21657;SDS011;10990;48.174;9.782;2022-09-09T00:22:27;1.85;;;0.85;;
21657;SDS011;10990;48.174;9.782;2022-09-09T00:25:01;2.83;;;0.73;;
21657;SDS011;10990;48.174;9.782;2022-09-09T00:27:39;0.90;;;0.70;;
21657;SDS011;10990;48.174;9.782;2022-09-09T00:30:13;1.05;;;0.77;;
21657;SDS011;10990;48.174;9.782;2022-09-09T00:32:45;1.83;;;0.77;;
21657;SDS011;10990;48.174;9.782;2022-09-09T00:35:17;2.17;;;0.80;;
21657;SDS011;10990;48.174;9.782;2022-09-09T00:37:50;0.70;;;0.70;;
21657;SDS011;10990;48.174;9.782;2022-09-09T00:40:24;1.05;;;0.68;;
21657;SDS011;10990;48.174;9.782;2022-09-09T00:43:04;1.00;;;0.80;;
21657;SDS011;10990;48.174;9.782;2022-09-09T00:48:59;0.80;;;0.80;;
21657;SDS011;10990;48.174;9.782;2022-09-09T00:51:40;0.65;;;0.63;;
21657;SDS011;10990;48.174;9.782;2022-09-09T00:54:22;1.30;;;0.90;;
21657;SDS011;10990;48.174;9.782;2022-09-09T00:57:13;1.17;;;0.80;;
21657;SDS011;10990;48.174;9.782;2022-09-09T00:59:47;2.30;;;0.77;;
21657;SDS011;10990;48.174;9.782;2022-09-09T01:02:26;2.75;;;1.10;;
21657;SDS011;10990;48.174;9.782;2022-09-09T01:04:56;0.70;;;0.70;;
21657;SDS011;10990;48.174;9.782;2022-09-09T01:07:30;1.15;;;0.68;;
21657;SDS011;10990;48.174;9.782;2022-09-09T01:09:58;2.33;;;0.70;;
21657;SDS011;10990;48.174;9.782;2022-09-09T01:12:33;1.60;;;0.77;;
21657;SDS011;10990;48.174;9.782;2022-09-09T01:15:08;2.92;;;0.80;;
21657;SDS011;10990;48.174;9.782;2022-09-09T01:17:49;1.70;;;0.90;;
21657;SDS011;10990;48.174;9.782;2022-09-09T01:20:23;2.25;;;0.80;;
21657;SDS011;10990;48.174;9.782;2022-09-09T01:22:59;2.05;;;0.82;;
21657;SDS011;10990;48.174;9.782;2022-09-09T01:26:11;1.38;;;0.80;;
21657;SDS011;10990;48.174;9.782;2022-09-09T01:28:44;1.02;;;0.80;;
21657;SDS011;10990;48.174;9.782;2022-09-09T01:31:17;0.85;;;0.85;;
21657;SDS011;10990;48.174;9.782;2022-09-09T01:33:48;1.23;;;0.65;;
21657;SDS011;10990;48.174;9.782;2022-09-09T01:36:21;1.65;;;0.95;;
21657;SDS011;10990;48.174;9.782;2022-09-09T01:38:54;1.90;;;0.80;;
21657;SDS011;10990;48.174;9.782;2022-09-09T01:41:23;2.50;;;1.10;;
21657;SDS011;10990;48.174;9.782;2022-09-09T01:44:00;2.60;;;1.00;;
21657;SDS011;10990;48.174;9.782;2022-09-09T01:46:32;1.25;;;1.15;;
21657;SDS011;10990;48.174;9.782;2022-09-09T01:49:02;1.20;;;0.90;;
21657;SDS011;10990;48.174;9.782;2022-09-09T01:51:32;1.88;;;1.08;;
21657;SDS011;10990;48.174;9.782;2022-09-09T01:54:03;1.38;;;1.02;;
21657;SDS011;10990;48.174;9.782;2022-09-09T01:56:38;2.22;;;1.40;;
21657;SDS011;10990;48.174;9.782;2022-09-09T01:59:17;2.55;;;1.10;;
21657;SDS011;10990;48.174;9.782;2022-09-09T02:02:02;2.65;;;1.00;;
21657;SDS011;10990;48.174;9.782;2022-09-09T02:04:39;2.30;;;1.00;;
21657;SDS011;10990;48.174;9.782;2022-09-09T02:07:18;1.23;;;0.93;;
21657;SDS011;10990;48.174;9.782;2022-09-09T02:09:56;2.45;;;1.23;;
21657;SDS011;10990;48.174;9.782;2022-09-09T02:12:29;1.77;;;1.00;;
21657;SDS011;10990;48.174;9.782;2022-09-09T02:15:02;2.53;;;1.05;;
21657;SDS011;10990;48.174;9.782;2022-09-09T02:17:44;1.70;;;1.00;;
21657;SDS011;10990;48.174;9.782;2022-09-09T02:20:15;1.80;;;1.05;;
21657;SDS011;10990;48.174;9.782;2022-09-09T02:22:50;3.58;;;1.20;;
21657;SDS011;10990;48.174;9.782;2022-09-09T02:25:24;1.98;;;1.10;;
21657;SDS011;10990;48.174;9.782;2022-09-09T02:28:05;1.10;;;1.00;;
21657;SDS011;10990;48.174;9.782;2022-09-09T02:30:36;1.42;;;1.05;;
21657;SDS011;10990;48.174;9.782;2022-09-09T02:33:07;1.25;;;1.13;;
21657;SDS011;10990;48.174;9.782;2022-09-09T02:35:44;2.25;;;1.02;;
21657;SDS011;10990;48.174;9.782;2022-09-09T02:38:16;2.15;;;1.05;;
21657;SDS011;10990;48.174;9.782;2022-09-09T02:41:15;2.53;;;1.15;;
21657;SDS011;10990;48.174;9.782;2022-09-09T02:43:44;1.92;;;1.35;;
21657;SDS011;10990;48.174;9.782;2022-09-09T02:46:24;2.58;;;1.30;;
21657;SDS011;10990;48.174;9.782;2022-09-09T02:49:06;1.80;;;1.52;;
21657;SDS011;10990;48.174;9.782;2022-09-09T02:51:40;2.35;;;1.60;;
21657;SDS011;10990;48.174;9.782;2022-09-09T02:54:20;2.10;;;1.30;;
21657;SDS011;10990;48.174;9.782;2022-09-09T02:56:53;2.05;;;1.38;;
21657;SDS011;10990;48.174;9.782;2022-09-09T02:59:30;1.65;;;1.30;;
21657;SDS011;10990;48.174;9.782;2022-09-09T03:01:59;1.52;;;1.30;;
21657;SDS011;10990;48.174;9.782;2022-09-09T03:04:28;2.40;;;1.50;;
21657;SDS011;10990;48.174;9.782;2022-09-09T03:06:56;2.78;;;1.40;;
21657;SDS011;10990;48.174;9.782;2022-09-09T03:09:23;3.42;;;1.50;;
21657;SDS011;10990;48.174;9.782;2022-09-09T03:11:52;2.10;;;1.38;;
21657;SDS011;10990;48.174;9.782;2022-09-09T03:14:21;5.63;;;1.80;;
21657;SDS011;10990;48.174;9.782;2022-09-09T03:16:52;1.65;;;1.25;;
21657;SDS011;10990;48.174;9.782;2022-09-09T03:19:20;3.60;;;1.80;;
21657;SDS011;10990;48.174;9.782;2022-09-09T03:21:50;2.75;;;1.50;;
21657;SDS011;10990;48.174;9.782;2022-09-09T03:24:18;5.35;;;1.70;;
21657;SDS011;10990;48.174;9.782;2022-09-09T03:26:46;4.80;;;1.70;;
21657;SDS011;10990;48.174;9.782;2022-09-09T03:29:16;2.38;;;1.60;;
21657;SDS011;10990;48.174;9.782;2022-09-09T03:31:44;3.97;;;1.60;;
21657;SDS011;10990;48.174;9.782;2022-09-09T03:34:12;4.10;;;1.77;;
21657;SDS011;10990;48.174;9.782;2022-09-09T03:36:40;3.70;;;1.67;;
21657;SDS011;10990;48.174;9.782;2022-09-09T03:39:07;4.68;;;1.80;;
21657;SDS011;10990;48.174;9.782;2022-09-09T03:41:36;2.35;;;1.70;;
21657;SDS011;10990;48.174;9.782;2022-09-09T03:44:04;2.67;;;1.48;;
21657;SDS011;10990;48.174;9.782;2022-09-09T03:46:38;2.28;;;1.60;;
21657;SDS011;10990;48.174;9.782;2022-09-09T03:49:05;4.60;;;1.60;;
21657;SDS011;10990;48.174;9.782;2022-09-09T03:51:33;3.92;;;1.48;;
21657;SDS011;10990;48.174;9.782;2022-09-09T03:54:01;3.17;;;1.88;;
21657;SDS011;10990;48.174;9.782;2022-09-09T03:56:30;4.95;;;1.65;;
21657;SDS011;10990;48.174;9.782;2022-09-09T03:58:58;2.38;;;1.70;;
21657;SDS011;10990;48.174;9.782;2022-09-09T04:01:25;3.58;;;2.00;;
21657;SDS011;10990;48.174;9.782;2022-09-09T04:03:53;5.35;;;2.00;;
21657;SDS011;10990;48.174;9.782;2022-09-09T04:06:24;2.63;;;1.52;;
21657;SDS011;10990;48.174;9.782;2022-09-09T04:08:54;3.17;;;1.70;;
21657;SDS011;10990;48.174;9.782;2022-09-09T04:11:21;2.67;;;1.38;;
21657;SDS011;10990;48.174;9.782;2022-09-09T04:13:51;2.90;;;1.50;;
21657;SDS011;10990;48.174;9.782;2022-09-09T04:16:18;2.13;;;1.30;;
21657;SDS011;10990;48.174;9.782;2022-09-09T04:18:45;2.60;;;1.50;;
21657;SDS011;10990;48.174;9.782;2022-09-09T04:21:15;3.00;;;1.50;;
21657;SDS011;10990;48.174;9.782;2022-09-09T04:23:42;1.95;;;1.60;;
21657;SDS011;10990;48.174;9.782;2022-09-09T04:26:13;2.35;;;1.45;;
21657;SDS011;10990;48.174;9.782;2022-09-09T04:28:40;2.30;;;1.52;;
21657;SDS011;10990;48.174;9.782;2022-09-09T04:31:15;2.55;;;1.30;;
21657;SDS011;10990;48.174;9.782;2022-09-09T04:33:45;2.22;;;1.70;;
21657;SDS011;10990;48.174;9.782;2022-09-09T04:36:14;2.28;;;1.50;;
21657;SDS011;10990;48.174;9.782;2022-09-09T04:38:42;2.40;;;1.58;;
21657;SDS011;10990;48.174;9.782;2022-09-09T04:41:10;1.85;;;1.65;;
21657;SDS011;10990;48.174;9.782;2022-09-09T04:43:41;3.50;;;1.50;;
21657;SDS011;10990;48.174;9.782;2022-09-09T04:46:11;3.00;;;1.90;;
21657;SDS011;10990;48.174;9.782;2022-09-09T04:48:38;3.10;;;1.42;;
21657;SDS011;10990;48.174;9.782;2022-09-09T04:51:08;3.50;;;2.13;;
21657;SDS011;10990;48.174;9.782;2022-09-09T04:53:38;4.43;;;1.65;;
21657;SDS011;10990;48.174;9.782;2022-09-09T04:56:06;3.85;;;1.67;;
21657;SDS011;10990;48.174;9.782;2022-09-09T04:58:40;3.65;;;1.52;;
21657;SDS011;10990;48.174;9.782;2022-09-09T05:01:10;2.00;;;1.50;;
21657;SDS011;10990;48.174;9.782;2022-09-09T05:03:40;3.63;;;1.70;;
21657;SDS011;10990;48.174;9.782;2022-09-09T05:06:13;2.97;;;1.60;;
21657;SDS011;10990;48.174;9.782;2022-09-09T05:08:43;2.17;;;1.58;;
21657;SDS011;10990;48.174;9.782;2022-09-09T05:11:15;3.38;;;1.50;;
21657;SDS011;10990;48.174;9.782;2022-09-09T05:13:46;2.67;;;1.50;;
21657;SDS011;10990;48.174;9.782;2022-09-09T05:16:14;2.10;;;1.40;;
21657;SDS011;10990;48.174;9.782;2022-09-09T05:18:41;3.97;;;1.63;;
21657;SDS011;10990;48.174;9.782;2022-09-09T05:21:10;3.55;;;1.38;;
21657;SDS011;10990;48.174;9.782;2022-09-09T05:23:40;3.08;;;1.58;;
21657;SDS011;10990;48.174;9.782;2022-09-09T05:26:09;4.70;;;1.70;;
21657;SDS011;10990;48.174;9.782;2022-09-09T05:28:39;1.73;;;1.15;;
21657;SDS011;10990;48.174;9.782;2022-09-09T05:31:09;2.78;;;1.40;;
21657;SDS011;10990;48.174;9.782;2022-09-09T05:33:39;1.50;;;1.00;;
21657;SDS011;10990;48.174;9.782;2022-09-09T05:36:09;1.67;;;0.90;;
21657;SDS011;10990;48.174;9.782;2022-09-09T05:38:39;1.38;;;0.93;;
21657;SDS011;10990;48.174;9.782;2022-09-09T05:41:08;2.45;;;1.10;;
21657;SDS011;10990;48.174;9.782;2022-09-09T05:43:36;2.45;;;0.95;;
21657;SDS011;10990;48.174;9.782;2022-09-09T05:46:04;2.10;;;1.00;;
21657;SDS011;10990;48.174;9.782;2022-09-09T05:48:34;1.65;;;1.10;;
21657;SDS011;10990;48.174;9.782;2022-09-09T05:51:03;2.17;;;1.08;;
21657;SDS011;10990;48.174;9.782;2022-09-09T05:53:32;2.80;;;0.88;;
21657;SDS011;10990;48.174;9.782;2022-09-09T05:56:00;3.08;;;1.20;;
21657;SDS011;10990;48.174;9.782;2022-09-09T05:58:31;2.75;;;1.30;;
21657;SDS011;10990;48.174;9.782;2022-09-09T06:01:00;6.70;;;1.80;;
21657;SDS011;10990;48.174;9.782;2022-09-09T06:03:30;4.28;;;1.40;;
21657;SDS011;10990;48.174;9.782;2022-09-09T06:06:01;4.07;;;1.50;;
21657;SDS011;10990;48.174;9.782;2022-09-09T06:08:32;2.45;;;1.70;;
21657;SDS011;10990;48.174;9.782;2022-09-09T06:11:03;3.05;;;1.60;;
21657;SDS011;10990;48.174;9.782;2022-09-09T06:13:32;3.47;;;1.70;;
21657;SDS011;10990;48.174;9.782;2022-09-09T06:16:00;5.25;;;2.10;;
21657;SDS011;10990;48.174;9.782;2022-09-09T06:18:27;2.47;;;1.63;;
21657;SDS011;10990;48.174;9.782;2022-09-09T06:20:55;1.85;;;1.67;;
21657;SDS011;10990;48.174;9.782;2022-09-09T06:23:26;3.38;;;1.70;;
21657;SDS011;10990;48.174;9.782;2022-09-09T06:26:02;4.53;;;1.67;;
21657;SDS011;10990;48.174;9.782;2022-09-09T06:28:33;2.40;;;1.50;;
21657;SDS011;10990;48.174;9.782;2022-09-09T06:31:03;2.47;;;1.38;;
21657;SDS011;10990;48.174;9.782;2022-09-09T06:33:33;4.70;;;1.60;;
21657;SDS011;10990;48.174;9.782;2022-09-09T06:36:02;5.15;;;1.42;;
21657;SDS011;10990;48.174;9.782;2022-09-09T06:38:32;3.50;;;1.60;;
21657;SDS011;10990;48.174;9.782;2022-09-09T06:40:59;4.50;;;1.80;;
21657;SDS011;10990;48.174;9.782;2022-09-09T06:43:28;4.35;;;2.10;;
21657;SDS011;10990;48.174;9.782;2022-09-09T06:45:57;4.07;;;1.80;;
21657;SDS011;10990;48.174;9.782;2022-09-09T06:48:25;5.30;;;1.80;;
21657;SDS011;10990;48.174;9.782;2022-09-09T06:51:00;5.28;;;2.28;;
21657;SDS011;10990;48.174;9.782;2022-09-09T06:53:30;2.80;;;1.40;;
21657;SDS011;10990;48.174;9.782;2022-09-09T06:56:00;4.85;;;1.77;;
21657;SDS011;10990;48.174;9.782;2022-09-09T06:58:29;3.17;;;1.65;;
21657;SDS011;10990;48.174;9.782;2022-09-09T07:01:02;5.13;;;1.63;;
21657;SDS011;10990;48.174;9.782;2022-09-09T07:03:31;2.38;;;1.40;;
21657;SDS011;10990;48.174;9.782;2022-09-09T07:06:00;4.68;;;1.50;;
21657;SDS011;10990;48.174;9.782;2022-09-09T07:08:29;4.38;;;1.38;;
21657;SDS011;10990;48.174;9.782;2022-09-09T07:11:02;6.18;;;1.35;;
21657;SDS011;10990;48.174;9.782;2022-09-09T07:13:33;2.40;;;1.33;;
21657;SDS011;10990;48.174;9.782;2022-09-09T07:16:03;3.45;;;1.20;;
21657;SDS011;10990;48.174;9.782;2022-09-09T07:18:31;2.92;;;1.20;;
21657;SDS011;10990;48.174;9.782;2022-09-09T07:20:58;3.42;;;1.30;;
21657;SDS011;10990;48.174;9.782;2022-09-09T07:23:28;3.25;;;1.42;;
21657;SDS011;10990;48.174;9.782;2022-09-09T07:25:55;2.15;;;1.25;;
21657;SDS011;10990;48.174;9.782;2022-09-09T07:28:25;3.60;;;1.13;;
21657;SDS011;10990;48.174;9.782;2022-09-09T07:30:54;1.88;;;1.38;;
21657;SDS011;10990;48.174;9.782;2022-09-09T07:33:21;2.55;;;1.10;;
21657;SDS011;10990;48.174;9.782;2022-09-09T07:35:50;2.90;;;1.33;;
21657;SDS011;10990;48.174;9.782;2022-09-09T07:38:17;2.13;;;1.10;;
21657;SDS011;10990;48.174;9.782;2022-09-09T07:40:46;1.90;;;1.17;;
21657;SDS011;10990;48.174;9.782;2022-09-09T07:43:12;2.05;;;1.25;;
21657;SDS011;10990;48.174;9.782;2022-09-09T07:45:43;2.60;;;1.13;;
21657;SDS011;10990;48.174;9.782;2022-09-09T07:48:09;2.83;;;0.93;;
21657;SDS011;10990;48.174;9.782;2022-09-09T07:50:37;1.85;;;1.20;;
21657;SDS011;10990;48.174;9.782;2022-09-09T07:53:04;4.15;;;1.10;;
21657;SDS011;10990;48.174;9.782;2022-09-09T07:55:32;2.58;;;1.00;;
21657;SDS011;10990;48.174;9.782;2022-09-09T07:57:59;3.25;;;1.10;;
21657;SDS011;10990;48.174;9.782;2022-09-09T08:00:26;4.43;;;1.25;;
21657;SDS011;10990;48.174;9.782;2022-09-09T08:02:58;1.98;;;1.00;;
21657;SDS011;10990;48.174;9.782;2022-09-09T08:05:26;1.95;;;1.20;;
21657;SDS011;10990;48.174;9.782;2022-09-09T08:07:54;3.10;;;0.90;;
21657;SDS011;10990;48.174;9.782;2022-09-09T08:10:21;1.17;;;0.93;;
21657;SDS011;10990;48.174;9.782;2022-09-09T08:12:50;3.13;;;1.00;;
21657;SDS011;10990;48.174;9.782;2022-09-09T08:15:18;1.50;;;0.93;;
21657;SDS011;10990;48.174;9.782;2022-09-09T08:17:45;1.90;;;1.05;;
21657;SDS011;10990;48.174;9.782;2022-09-09T08:20:14;1.95;;;1.10;;
21657;SDS011;10990;48.174;9.782;2022-09-09T08:22:41;1.27;;;0.90;;
21657;SDS011;10990;48.174;9.782;2022-09-09T08:25:09;2.70;;;1.00;;
21657;SDS011;10990;48.174;9.782;2022-09-09T08:27:38;3.08;;;0.90;;
21657;SDS011;10990;48.174;9.782;2022-09-09T08:30:06;1.48;;;0.80;;
21657;SDS011;10990;48.174;9.782;2022-09-09T08:32:33;3.17;;;0.95;;
21657;SDS011;10990;48.174;9.782;2022-09-09T08:35:02;2.30;;;0.80;;
21657;SDS011;10990;48.174;9.782;2022-09-09T08:37:31;3.08;;;1.00;;
21657;SDS011;10990;48.174;9.782;2022-09-09T08:39:58;2.33;;;0.93;;
21657;SDS011;10990;48.174;9.782;2022-09-09T08:42:31;3.30;;;0.90;;
21657;SDS011;10990;48.174;9.782;2022-09-09T08:45:14;3.42;;;1.20;;
21657;SDS011;10990;48.174;9.782;2022-09-09T08:47:55;3.60;;;0.90;;
21657;SDS011;10990;48.174;9.782;2022-09-09T08:50:32;5.93;;;1.20;;
21657;SDS011;10990;48.174;9.782;2022-09-09T08:53:14;3.58;;;0.82;;
21657;SDS011;10990;48.174;9.782;2022-09-09T08:55:47;1.88;;;0.90;;
21657;SDS011;10990;48.174;9.782;2022-09-09T08:58:18;3.53;;;1.02;;
21657;SDS011;10990;48.174;9.782;2022-09-09T09:00:54;3.80;;;0.90;;
21657;SDS011;10990;48.174;9.782;2022-09-09T09:03:35;2.10;;;0.85;;
21657;SDS011;10990;48.174;9.782;2022-09-09T09:06:15;1.70;;;0.80;;
21657;SDS011;10990;48.174;9.782;2022-09-09T09:08:57;3.47;;;0.95;;
21657;SDS011;10990;48.174;9.782;2022-09-09T09:11:34;3.63;;;1.10;;
21657;SDS011;10990;48.174;9.782;2022-09-09T09:14:03;1.48;;;0.80;;
21657;SDS011;10990;48.174;9.782;2022-09-09T09:16:38;3.42;;;0.93;;
21657;SDS011;10990;48.174;9.782;2022-09-09T09:19:14;1.35;;;0.88;;
21657;SDS011;10990;48.174;9.782;2022-09-09T09:21:48;1.98;;;0.80;;
21657;SDS011;10990;48.174;9.782;2022-09-09T09:24:22;3.55;;;1.02;;
21657;SDS011;10990;48.174;9.782;2022-09-09T09:26:58;2.03;;;0.80;;
21657;SDS011;10990;48.174;9.782;2022-09-09T09:29:34;3.45;;;1.00;;
21657;SDS011;10990;48.174;9.782;2022-09-09T09:32:02;2.78;;;1.00;;
21657;SDS011;10990;48.174;9.782;2022-09-09T09:34:31;2.35;;;1.00;;
21657;SDS011;10990;48.174;9.782;2022-09-09T09:36:59;3.28;;;1.00;;
21657;SDS011;10990;48.174;9.782;2022-09-09T09:39:32;4.20;;;1.05;;
21657;SDS011;10990;48.174;9.782;2022-09-09T09:42:07;2.25;;;0.90;;
21657;SDS011;10990;48.174;9.782;2022-09-09T09:44:42;2.55;;;0.88;;
21657;SDS011;10990;48.174;9.782;2022-09-09T09:47:15;4.88;;;1.20;;
21657;SDS011;10990;48.174;9.782;2022-09-09T09:49:52;1.98;;;0.90;;
21657;SDS011;10990;48.174;9.782;2022-09-09T09:52:22;1.95;;;0.88;;
21657;SDS011;10990;48.174;9.782;2022-09-09T09:54:53;3.10;;;1.20;;
21657;SDS011;10990;48.174;9.782;2022-09-09T09:57:23;1.50;;;0.90;;
21657;SDS011;10990;48.174;9.782;2022-09-09T10:00:00;2.03;;;1.00;;
21657;SDS011;10990;48.174;9.782;2022-09-09T10:02:40;2.65;;;1.00;;
21657;SDS011;10990;48.174;9.782;2022-09-09T10:05:17;3.17;;;1.00;;
21657;SDS011;10990;48.174;9.782;2022-09-09T10:07:59;1.73;;;1.00;;
21657;SDS011;10990;48.174;9.782;2022-09-09T10:10:33;2.08;;;0.80;;
21657;SDS011;10990;48.174;9.782;2022-09-09T10:13:15;1.92;;;0.95;;
21657;SDS011;10990;48.174;9.782;2022-09-09T10:15:52;1.17;;;0.77;;
21657;SDS011;10990;48.174;9.782;2022-09-09T10:21:43;1.60;;;0.80;;
21657;SDS011;10990;48.174;9.782;2022-09-09T10:27:23;1.50;;;0.90;;
21657;SDS011;10990;48.174;9.782;2022-09-09T10:30:06;2.03;;;0.80;;
21657;SDS011;10990;48.174;9.782;2022-09-09T10:32:45;2.90;;;0.80;;
21657;SDS011;10990;48.174;9.782;2022-09-09T10:35:26;2.05;;;0.75;;
21657;SDS011;10990;48.174;9.782;2022-09-09T10:38:13;1.27;;;0.80;;
21657;SDS011;10990;48.174;9.782;2022-09-09T10:40:48;1.70;;;0.90;;
21657;SDS011;10990;48.174;9.782;2022-09-09T10:43:38;1.75;;;0.80;;
21657;SDS011;10990;48.174;9.782;2022-09-09T10:46:22;1.73;;;0.90;;
21657;SDS011;10990;48.174;9.782;2022-09-09T10:49:01;1.42;;;0.77;;
21657;SDS011;10990;48.174;9.782;2022-09-09T10:51:44;2.08;;;0.80;;
21657;SDS011;10990;48.174;9.782;2022-09-09T10:54:24;3.40;;;0.93;;
21657;SDS011;10990;48.174;9.782;2022-09-09T10:57:00;2.25;;;0.73;;
21657;SDS011;10990;48.174;9.782;2022-09-09T10:59:35;2.28;;;1.00;;
21657;SDS011;10990;48.174;9.782;2022-09-09T11:02:11;1.83;;;0.85;;
21657;SDS011;10990;48.174;9.782;2022-09-09T11:04:45;0.90;;;0.70;;
21657;SDS011;10990;48.174;9.782;2022-09-09T11:07:21;2.70;;;0.68;;
21657;SDS011;10990;48.174;9.782;2022-09-09T11:09:54;2.00;;;0.88;;
21657;SDS011;10990;48.174;9.782;2022-09-09T11:12:27;2.63;;;0.90;;
21657;SDS011;10990;48.174;9.782;2022-09-09T11:14:59;2.65;;;0.88;;
21657;SDS011;10990;48.174;9.782;2022-09-09T11:17:34;1.27;;;0.60;;
21657;SDS011;10990;48.174;9.782;2022-09-09T11:20:06;2.28;;;0.70;;
21657;SDS011;10990;48.174;9.782;2022-09-09T11:22:39;0.90;;;0.70;;
21657;SDS011;10990;48.174;9.782;2022-09-09T11:25:14;1.13;;;0.68;;
21657;SDS011;10990;48.174;9.782;2022-09-09T11:27:50;1.77;;;0.80;;
21657;SDS011;10990;48.174;9.782;2022-09-09T11:30:33;1.52;;;0.90;;
21657;SDS011;10990;48.174;9.782;2022-09-09T11:33:17;1.40;;;0.80;;
21657;SDS011;10990;48.174;9.782;2022-09-09T11:36:21;1.10;;;0.60;;
21657;SDS011;10990;48.174;9.782;2022-09-09T11:39:22;1.42;;;0.68;;
21657;SDS011;10990;48.174;9.782;2022-09-09T11:42:07;1.08;;;0.60;;
21657;SDS011;10990;48.174;9.782;2022-09-09T11:44:41;1.80;;;0.63;;
21657;SDS011;10990;48.174;9.782;2022-09-09T11:47:16;1.45;;;0.70;;
21657;SDS011;10990;48.174;9.782;2022-09-09T11:49:49;1.00;;;0.70;;
21657;SDS011;10990;48.174;9.782;2022-09-09T11:52:20;3.58;;;0.75;;
21657;SDS011;10990;48.174;9.782;2022-09-09T11:54:51;1.08;;;0.70;;
21657;SDS011;10990;48.174;9.782;2022-09-09T11:57:23;1.17;;;0.80;;
21657;SDS011;10990;48.174;9.782;2022-09-09T11:59:58;1.55;;;0.80;;
21657;SDS011;10990;48.174;9.782;2022-09-09T12:02:27;1.85;;;0.70;;
21657;SDS011;10990;48.174;9.782;2022-09-09T12:04:58;1.60;;;0.57;;
21657;SDS011;10990;48.174;9.782;2022-09-09T12:07:30;1.48;;;0.80;;
21657;SDS011;10990;48.174;9.782;2022-09-09T12:10:03;1.85;;;1.00;;
21657;SDS011;10990;48.174;9.782;2022-09-09T12:12:34;1.55;;;0.70;;
21657;SDS011;10990;48.174;9.782;2022-09-09T12:15:17;2.42;;;1.05;;
21657;SDS011;10990;48.174;9.782;2022-09-09T12:17:55;2.17;;;0.73;;
21657;SDS011;10990;48.174;9.782;2022-09-09T12:20:26;1.52;;;0.80;;
21657;SDS011;10990;48.174;9.782;2022-09-09T12:23:07;1.17;;;0.82;;
21657;SDS011;10990;48.174;9.782;2022-09-09T12:26:05;3.53;;;0.90;;
21657;SDS011;10990;48.174;9.782;2022-09-09T12:28:55;3.50;;;0.70;;
21657;SDS011;10990;48.174;9.782;2022-09-09T12:31:32;1.77;;;0.60;;
21657;SDS011;10990;48.174;9.782;2022-09-09T12:34:12;2.30;;;0.70;;
21657;SDS011;10990;48.174;9.782;2022-09-09T12:36:54;1.00;;;0.60;;
21657;SDS011;10990;48.174;9.782;2022-09-09T12:39:31;1.13;;;0.70;;
21657;SDS011;10990;48.174;9.782;2022-09-09T12:42:01;2.65;;;0.80;;
21657;SDS011;10990;48.174;9.782;2022-09-09T12:44:29;3.10;;;0.80;;
21657;SDS011;10990;48.174;9.782;2022-09-09T12:46:58;1.67;;;0.80;;
21657;SDS011;10990;48.174;9.782;2022-09-09T12:49:32;0.68;;;0.60;;
21657;SDS011;10990;48.174;9.782;2022-09-09T12:52:04;1.77;;;0.80;;
21657;SDS011;10990;48.174;9.782;2022-09-09T12:54:35;0.98;;;0.68;;
21657;SDS011;10990;48.174;9.782;2022-09-09T12:57:04;1.63;;;0.80;;
21657;SDS011;10990;48.174;9.782;2022-09-09T12:59:37;1.60;;;0.80;;
21657;SDS011;10990;48.174;9.782;2022-09-09T13:02:11;1.77;;;0.77;;
21657;SDS011;10990;48.174;9.782;2022-09-09T13:04:47;3.22;;;0.82;;
21657;SDS011;10990;48.174;9.782;2022-09-09T13:07:16;1.25;;;0.65;;
21657;SDS011;10990;48.174;9.782;2022-09-09T13:09:45;1.65;;;0.70;;
21657;SDS011;10990;48.174;9.782;2022-09-09T13:12:15;2.97;;;0.80;;
21657;SDS011;10990;48.174;9.782;2022-09-09T13:14:45;1.38;;;0.75;;
21657;SDS011;10990;48.174;9.782;2022-09-09T13:17:18;1.75;;;0.80;;
21657;SDS011;10990;48.174;9.782;2022-09-09T13:19:49;2.42;;;0.98;;
21657;SDS011;10990;48.174;9.782;2022-09-09T13:22:21;2.10;;;0.82;;
21657;SDS011;10990;48.174;9.782;2022-09-09T13:25:02;3.08;;;0.73;;
21657;SDS011;10990;48.174;9.782;2022-09-09T13:27:33;1.73;;;0.80;;
21657;SDS011;10990;48.174;9.782;2022-09-09T13:30:19;1.42;;;0.70;;
21657;SDS011;10990;48.174;9.782;2022-09-09T13:32:59;3.78;;;0.82;;
21657;SDS011;10990;48.174;9.782;2022-09-09T13:35:28;1.05;;;0.80;;
21657;SDS011;10990;48.174;9.782;2022-09-09T13:37:56;3.53;;;0.70;;
21657;SDS011;10990;48.174;9.782;2022-09-09T13:40:35;1.08;;;0.60;;
21657;SDS011;10990;48.174;9.782;2022-09-09T13:43:02;4.18;;;0.75;;
21657;SDS011;10990;48.174;9.782;2022-09-09T13:45:32;1.52;;;0.70;;
21657;SDS011;10990;48.174;9.782;2022-09-09T13:48:41;1.20;;;0.60;;
21657;SDS011;10990;48.174;9.782;2022-09-09T13:58:33;0.98;;;0.50;;
21657;SDS011;10990;48.174;9.782;2022-09-09T14:08:09;1.77;;;0.60;;
21657;SDS011;10990;48.174;9.782;2022-09-09T14:11:20;2.83;;;0.70;;
21657;SDS011;10990;48.174;9.782;2022-09-09T14:20:58;2.88;;;0.73;;
21657;SDS011;10990;48.174;9.782;2022-09-09T14:23:25;3.65;;;0.80;;
21657;SDS011;10990;48.174;9.782;2022-09-09T14:25:53;2.10;;;0.70;;
21657;SDS011;10990;48.174;9.782;2022-09-09T14:28:24;2.03;;;0.70;;
21657;SDS011;10990;48.174;9.782;2022-09-09T14:30:52;1.27;;;0.60;;
21657;SDS011;10990;48.174;9.782;2022-09-09T14:37:18;2.45;;;0.77;;
21657;SDS011;10990;48.174;9.782;2022-09-09T14:39:56;2.53;;;0.80;;
21657;SDS011;10990;48.174;9.782;2022-09-09T14:42:23;1.67;;;0.70;;
21657;SDS011;10990;48.174;9.782;2022-09-09T14:45:00;3.03;;;0.90;;
21657;SDS011;10990;48.174;9.782;2022-09-09T14:47:38;2.00;;;0.70;;
21657;SDS011;10990;48.174;9.782;2022-09-09T14:50:05;3.95;;;0.70;;
21657;SDS011;10990;48.174;9.782;2022-09-09T14:52:53;1.25;;;0.60;;
21657;SDS011;10990;48.174;9.782;2022-09-09T14:55:20;1.50;;;0.80;;
21657;SDS011;10990;48.174;9.782;2022-09-09T14:58:24;2.50;;;0.60;;
21657;SDS011;10990;48.174;9.782;2022-09-09T15:01:02;2.50;;;0.77;;
21657;SDS011;10990;48.174;9.782;2022-09-09T15:03:35;3.70;;;0.80;;
21657;SDS011;10990;48.174;9.782;2022-09-09T15:06:11;1.40;;;0.75;;
21657;SDS011;10990;48.174;9.782;2022-09-09T15:19:39;3.33;;;0.70;;
21657;SDS011;10990;48.174;9.782;2022-09-09T15:22:07;2.88;;;0.73;;
21657;SDS011;10990;48.174;9.782;2022-09-09T15:24:35;1.67;;;0.70;;
21657;SDS011;10990;48.174;9.782;2022-09-09T15:27:04;3.10;;;0.80;;
21657;SDS011;10990;48.174;9.782;2022-09-09T15:29:33;4.13;;;0.80;;
21657;SDS011;10990;48.174;9.782;2022-09-09T15:32:01;2.60;;;0.60;;
21657;SDS011;10990;48.174;9.782;2022-09-09T15:34:28;2.05;;;0.80;;
21657;SDS011;10990;48.174;9.782;2022-09-09T15:36:55;2.22;;;0.73;;
21657;SDS011;10990;48.174;9.782;2022-09-09T15:39:22;2.42;;;0.80;;
21657;SDS011;10990;48.174;9.782;2022-09-09T15:41:50;2.22;;;0.80;;
21657;SDS011;10990;48.174;9.782;2022-09-09T15:44:16;3.05;;;0.65;;
21657;SDS011;10990;48.174;9.782;2022-09-09T15:46:48;2.70;;;0.70;;
21657;SDS011;10990;48.174;9.782;2022-09-09T15:49:17;1.23;;;0.60;;
21657;SDS011;10990;48.174;9.782;2022-09-09T15:51:47;1.75;;;0.60;;
21657;SDS011;10990;48.174;9.782;2022-09-09T15:54:19;2.55;;;0.63;;
21657;SDS011;10990;48.174;9.782;2022-09-09T15:56:49;2.03;;;0.98;;
21657;SDS011;10990;48.174;9.782;2022-09-09T15:59:17;1.95;;;0.73;;
21657;SDS011;10990;48.174;9.782;2022-09-09T16:01:47;1.60;;;0.70;;
21657;SDS011;10990;48.174;9.782;2022-09-09T16:04:16;1.90;;;0.50;;
21657;SDS011;10990;48.174;9.782;2022-09-09T16:06:48;1.70;;;0.50;;
21657;SDS011;10990;48.174;9.782;2022-09-09T16:09:17;0.40;;;0.40;;